Time;durP1;ratioP1;P1;durP2;ratioP2;P2;SDS_P1;SDS_P2;PMS_P1;PMS_P2;Temp;Humidity;BMP_temperature;BMP_pressure;BME280_temperature;BME280_humidity;BME280_pressure;Samples;Min_cycle;Max_cycle;Signal;HPM_P1;HPM_P2
2021/08/10 00:00:06;;;;;;;;;6.00;5.25;;;;;20.45;62.04;101576.88;4982167;28;45370;-75
2021/08/10 00:02:31;;;;;;;;;5.75;5.75;;;;;20.44;62.25;101568.97;4967214;28;45424;-75
2021/08/10 00:04:57;;;;;;;;;3.25;3.25;;;;;20.43;61.96;101576.13;4963826;28;45337;-75
2021/08/10 00:07:23;;;;;;;;;5.50;5.00;;;;;20.43;62.14;101575.25;4982723;28;45310;-75
2021/08/10 00:09:48;;;;;;;;;8.50;5.50;;;;;20.45;62.65;101584.88;4982161;28;45183;-76
2021/08/10 00:12:13;;;;;;;;;3.25;3.25;;;;;20.45;62.45;101582.22;4982378;28;45497;-76
2021/08/10 00:14:39;;;;;;;;;6.25;5.00;;;;;20.44;61.96;101567.16;4980645;28;47240;-76
2021/08/10 00:17:04;;;;;;;;;4.25;3.50;;;;;20.43;62.50;101570.78;4974460;28;45357;-76
2021/08/10 00:19:29;;;;;;;;;5.50;5.00;;;;;20.43;62.15;101565.44;4982144;28;45336;-76
2021/08/10 00:21:55;;;;;;;;;6.25;4.50;;;;;20.41;62.24;101559.34;4982074;28;45637;-76
2021/08/10 00:24:20;;;;;;;;;4.50;3.75;;;;;20.41;62.52;101561.13;4981381;28;45632;-76
2021/08/10 00:26:46;;;;;;;;;4.25;4.25;;;;;20.40;62.25;101562.94;4964951;28;45234;-76
2021/08/10 00:29:11;;;;;;;;;7.50;6.00;;;;;20.41;62.52;101558.47;4962749;28;45301;-76
2021/08/10 00:31:37;;;;;;;;;5.00;4.00;;;;;20.41;62.15;101567.34;4963675;28;45505;-77
2021/08/10 00:34:02;;;;;;;;;4.25;4.00;;;;;20.37;62.26;101565.81;4978680;28;45583;-77
2021/08/10 00:36:28;;;;;;;;;4.75;3.75;;;;;20.34;62.08;101566.88;4966576;28;45262;-76
2021/08/10 00:38:53;;;;;;;;;4.50;3.75;;;;;20.31;61.81;101569.72;4962465;28;45672;-76
2021/08/10 00:41:18;;;;;;;;;5.00;3.00;;;;;20.24;62.50;101555.03;4962056;28;45617;-76
2021/08/10 00:43:47;;;;;;;;;3.75;3.00;;;;;20.24;62.18;101555.91;4962552;28;46430;-76
2021/08/10 00:46:13;;;;;;;;;4.00;4.00;;;;;20.24;62.56;101555.03;4969486;28;45503;-76
2021/08/10 00:48:39;;;;;;;;;4.50;3.75;;;;;20.26;62.73;101565.59;4966225;28;45432;-76
2021/08/10 00:51:07;;;;;;;;;5.00;3.50;;;;;20.22;62.60;101565.78;4981659;28;45234;-76
2021/08/10 00:53:33;;;;;;;;;4.00;4.00;;;;;20.22;62.21;101559.63;4975654;28;46354;-76
2021/08/10 00:55:59;;;;;;;;;7.00;5.25;;;;;20.18;62.22;101561.59;4970537;28;45350;-76
2021/08/10 00:58:25;;;;;;;;;4.50;4.25;;;;;20.18;62.10;101572.28;4976739;28;45242;-76
2021/08/10 01:00:50;;;;;;;;;5.25;4.75;;;;;20.16;62.57;101576.84;4945769;28;47229;-76
2021/08/10 01:03:16;;;;;;;;;5.25;5.00;;;;;20.16;62.99;101581.31;4960539;28;47163;-76
2021/08/10 01:05:47;;;;;;;;;5.75;4.00;;;;;20.14;63.20;101584.09;4970697;28;45506;-74
2021/08/10 01:08:16;;;;;;;;;4.00;4.00;;;;;20.10;63.59;101590.56;4979556;28;45322;-75
2021/08/10 01:10:53;;;;;;;;;4.50;4.25;;;;;20.06;64.19;101589.00;4981297;28;45632;-75
2021/08/10 01:13:35;;;;;;;;;7.25;5.25;;;;;19.96;63.79;101592.22;4979885;28;48326;-75
2021/08/10 01:16:16;;;;;;;;;4.50;4.25;;;;;19.89;64.91;101596.22;4975733;28;45507;-75
2021/08/10 01:19:04;;;;;;;;;4.00;4.00;;;;;19.85;64.39;101602.69;4944374;28;45329;-75
2021/08/10 01:21:36;;;;;;;;;5.00;5.00;;;;;19.85;65.55;101605.34;4970179;28;45454;-75
2021/08/10 01:24:11;;;;;;;;;5.75;5.00;;;;;19.84;65.54;101611.63;4980854;28;45730;-75
2021/08/10 01:26:42;;;;;;;;;5.00;5.00;;;;;19.84;65.18;101606.28;4976158;28;45279;-75
2021/08/10 01:29:31;;;;;;;;;5.00;5.00;;;;;19.82;66.04;101602.84;4961578;28;45282;-75
2021/08/10 01:31:58;;;;;;;;;5.00;5.00;;;;;19.76;66.59;101602.25;4945571;28;46651;-75
2021/08/10 01:34:24;;;;;;;;;5.00;5.00;;;;;19.70;66.41;101599.97;4962778;28;45651;-75
2021/08/10 01:36:53;;;;;;;;;6.25;6.25;;;;;19.66;67.04;101601.94;4973213;28;45933;-75
2021/08/10 01:39:20;;;;;;;;;4.50;4.50;;;;;19.63;67.40;101593.28;4961400;28;45270;-75
2021/08/10 01:41:47;;;;;;;;;7.25;7.00;;;;;19.63;67.28;101590.59;4961283;28;45655;-75
2021/08/10 01:44:15;;;;;;;;;6.75;5.00;;;;;19.61;68.08;101588.00;4963755;28;45505;-75
2021/08/10 01:46:41;;;;;;;;;5.00;5.00;;;;;19.54;68.42;101590.19;4975760;28;45571;-75
2021/08/10 01:49:07;;;;;;;;;6.75;6.25;;;;;19.49;68.55;101594.06;4979602;28;45341;-75
2021/08/10 01:51:35;;;;;;;;;7.00;5.25;;;;;19.40;69.14;101584.78;4980785;28;45492;-74
2021/08/10 01:54:02;;;;;;;;;7.00;5.00;;;;;19.38;69.24;101587.56;4977659;28;46408;-74
2021/08/10 01:56:29;;;;;;;;;7.75;6.00;;;;;19.36;69.65;101580.59;4962299;28;45477;-74
2021/08/10 01:58:57;;;;;;;;;7.00;4.50;;;;;19.34;69.45;101589.53;4961133;28;45477;-74
2021/08/10 02:01:25;;;;;;;;;5.75;5.00;;;;;19.32;69.73;101587.88;4962372;28;45500;-74
2021/08/10 02:03:50;;;;;;;;;6.75;4.50;;;;;19.28;70.06;101584.56;4961026;28;45631;-74
2021/08/10 02:06:17;;;;;;;;;8.25;4.50;;;;;19.27;70.44;101592.63;4976499;28;45424;-74
2021/08/10 02:08:43;;;;;;;;;6.00;4.50;;;;;19.22;70.62;101590.22;4966220;28;45278;-74
2021/08/10 02:11:11;;;;;;;;;8.25;5.25;;;;;19.21;70.83;101601.84;4966911;28;45349;-74
2021/08/10 02:13:37;;;;;;;;;5.00;4.75;;;;;19.19;70.43;101601.03;4980481;28;46390;-74
2021/08/10 02:16:05;;;;;;;;;8.00;6.00;;;;;19.18;70.50;101602.00;4966452;28;45335;-74
2021/08/10 02:18:30;;;;;;;;;7.00;6.00;;;;;19.18;70.46;101599.34;4980409;28;45310;-74
2021/08/10 02:20:58;;;;;;;;;7.50;4.75;;;;;19.20;70.43;101610.75;4963645;28;45363;-74
2021/08/10 02:23:25;;;;;;;;;10.50;6.00;;;;;19.22;70.15;101614.19;4960537;28;46277;-74
2021/08/10 02:25:53;;;;;;;;;6.00;5.75;;;;;19.27;70.29;101608.59;4975370;28;45338;-74
2021/08/10 02:28:19;;;;;;;;;8.50;8.50;;;;;19.28;70.62;101595.22;4980325;28;45247;-75
2021/08/10 02:30:52;;;;;;;;;7.25;6.00;;;;;19.30;70.18;101593.31;4975682;28;46451;-74
2021/08/10 02:33:20;;;;;;;;;6.00;4.50;;;;;19.32;71.03;101585.22;4976814;28;46656;-74
2021/08/10 02:35:47;;;;;;;;;5.75;5.00;;;;;19.31;70.79;101580.84;4980042;28;45476;-74
2021/08/10 02:38:17;;;;;;;;;4.00;4.00;;;;;19.28;70.87;101587.22;4949823;28;45463;-75
2021/08/10 02:40:46;;;;;;;;;6.50;6.00;;;;;19.30;71.33;101587.13;4980184;28;45346;-75
2021/08/10 02:43:12;;;;;;;;;4.50;4.50;;;;;19.28;71.25;101589.88;4964234;28;46351;-75
2021/08/10 02:45:38;;;;;;;;;6.75;5.00;;;;;19.29;71.46;101593.38;4949144;28;45869;-74
2021/08/10 02:48:04;;;;;;;;;6.25;5.50;;;;;19.26;71.60;101585.59;4971597;28;45295;-75
2021/08/10 02:50:31;;;;;;;;;5.00;3.25;;;;;19.24;71.96;101593.66;4979816;28;45573;-75
2021/08/10 02:52:57;;;;;;;;;6.00;5.00;;;;;19.22;71.88;101587.56;4973542;28;46445;-74
2021/08/10 02:55:23;;;;;;;;;6.00;5.75;;;;;19.20;71.99;101586.78;4960591;28;45410;-74
2021/08/10 02:58:03;;;;;;;;;6.00;5.00;;;;;19.19;72.11;101590.38;4970065;28;45232;-75
2021/08/10 03:00:34;;;;;;;;;6.00;6.00;;;;;19.18;72.32;101588.69;4978642;28;45453;-76
2021/08/10 03:03:08;;;;;;;;;7.75;5.00;;;;;19.20;71.73;101581.44;4976466;28;45556;-76
2021/08/10 03:05:35;;;;;;;;;5.00;5.00;;;;;19.23;71.62;101586.63;4976954;28;45555;-75
2021/08/10 03:08:02;;;;;;;;;9.25;5.00;;;;;19.28;71.79;101575.69;4979464;28;45409;-75
2021/08/10 03:10:32;;;;;;;;;9.25;7.25;;;;;19.31;72.01;101578.19;4982943;28;45747;-75
2021/08/10 03:13:01;;;;;;;;;7.25;6.00;;;;;19.32;72.03;101583.41;4983130;28;46958;-74
2021/08/10 03:15:28;;;;;;;;;6.00;5.75;;;;;19.33;71.92;101581.63;4982897;28;45449;-75
2021/08/10 03:17:57;;;;;;;;;8.00;6.00;;;;;19.34;72.08;101570.00;4945248;28;45359;-75
2021/08/10 03:20:24;;;;;;;;;7.00;6.75;;;;;19.34;71.57;101570.00;4963391;28;45245;-73
2021/08/10 03:22:51;;;;;;;;;7.00;7.00;;;;;19.37;71.61;101583.16;4963458;28;45280;-73
2021/08/10 03:25:18;;;;;;;;;5.50;5.00;;;;;19.40;72.23;101590.13;4963685;28;45454;-73
2021/08/10 03:27:44;;;;;;;;;7.25;6.00;;;;;19.41;71.96;101592.69;4971162;28;45538;-73
2021/08/10 03:30:11;;;;;;;;;9.75;6.25;;;;;19.42;72.38;101591.75;4981341;28;46230;-73
2021/08/10 03:32:38;;;;;;;;;8.00;5.25;;;;;19.42;72.34;101588.22;4981233;28;46348;-73
2021/08/10 03:35:05;;;;;;;;;7.25;6.75;;;;;19.41;71.80;101583.84;4982475;28;45523;-73
2021/08/10 03:37:32;;;;;;;;;7.00;6.25;;;;;19.37;72.52;101588.50;4976493;28;45463;-73
2021/08/10 03:40:00;;;;;;;;;8.25;5.50;;;;;19.36;72.39;101576.09;4964975;28;46611;-73
2021/08/10 03:42:26;;;;;;;;;7.25;7.25;;;;;19.34;72.20;101572.66;4972061;28;45570;-73
2021/08/10 03:44:52;;;;;;;;;9.50;8.25;;;;;19.33;72.06;101577.13;4947866;28;45483;-75
2021/08/10 03:47:18;;;;;;;;;8.50;7.75;;;;;19.31;72.17;101573.69;4972452;28;45404;-75
2021/08/10 03:49:46;;;;;;;;;7.50;7.25;;;;;19.30;72.47;101571.13;4954593;28;47521;-76
2021/08/10 03:52:13;;;;;;;;;9.75;6.00;;;;;19.26;72.17;101566.94;4964572;28;45258;-76
2021/08/10 03:54:39;;;;;;;;;9.00;7.50;;;;;19.25;71.97;101565.19;4982416;28;45493;-76
2021/08/10 03:57:07;;;;;;;;;5.25;5.25;;;;;19.20;72.29;101561.00;4980411;28;45468;-76
2021/08/10 03:59:35;;;;;;;;;9.00;7.75;;;;;19.19;72.59;101572.59;4965948;28;45459;-76
2021/08/10 04:02:02;;;;;;;;;6.00;6.00;;;;;19.19;72.63;101580.59;4964096;28;47184;-76
2021/08/10 04:04:29;;;;;;;;;7.25;7.25;;;;;19.19;72.65;101579.72;4977604;28;45677;-76
2021/08/10 04:06:55;;;;;;;;;11.00;8.25;;;;;19.18;72.65;101583.34;4963040;28;45307;-76
2021/08/10 04:09:21;;;;;;;;;8.00;8.00;;;;;19.20;72.35;101578.78;4975150;28;45403;-76
2021/08/10 04:11:48;;;;;;;;;5.50;5.50;;;;;19.22;72.92;101584.88;4961771;28;46319;-76
2021/08/10 04:14:14;;;;;;;;;7.25;7.00;;;;;19.23;72.78;101575.97;4962756;28;45435;-76
2021/08/10 04:17:06;;;;;;;;;8.00;7.00;;;;;19.20;72.58;101582.31;4958913;28;45496;-76
2021/08/10 04:19:38;;;;;;;;;9.50;6.50;;;;;19.19;73.07;101580.59;4978600;28;45341;-76
2021/08/10 04:22:04;;;;;;;;;6.75;6.00;;;;;19.21;72.95;101584.03;4981193;28;46141;-76
2021/08/10 04:24:30;;;;;;;;;6.25;6.00;;;;;19.19;72.98;101577.91;4962496;28;45556;-76
2021/08/10 04:26:56;;;;;;;;;10.25;7.50;;;;;19.15;72.62;101581.69;4962801;28;45377;-76
2021/08/10 04:29:22;;;;;;;;;5.75;5.75;;;;;19.16;72.74;101588.72;4981850;28;45661;-76
2021/08/10 04:31:48;;;;;;;;;7.75;7.50;;;;;19.15;72.71;101587.00;4979032;28;45353;-75
2021/08/10 04:34:13;;;;;;;;;8.25;6.75;;;;;19.19;72.79;101588.59;4969362;28;45364;-75
2021/08/10 04:36:38;;;;;;;;;9.50;8.25;;;;;19.22;72.96;101590.22;4963094;28;46676;-75
2021/08/10 04:39:04;;;;;;;;;7.25;6.00;;;;;19.20;72.82;101592.97;4974805;28;45681;-75
2021/08/10 04:41:30;;;;;;;;;7.50;6.75;;;;;19.22;72.50;101598.22;4963506;28;46598;-76
2021/08/10 04:43:56;;;;;;;;;8.50;6.75;;;;;19.24;72.52;101593.66;4962056;28;45658;-76
2021/08/10 04:46:23;;;;;;;;;9.25;8.50;;;;;19.27;72.40;101590.81;4964766;28;45543;-76
2021/08/10 04:48:49;;;;;;;;;9.50;8.50;;;;;19.27;72.62;101593.47;4975870;28;46961;-76
2021/08/10 04:51:15;;;;;;;;;6.50;5.75;;;;;19.26;72.53;101599.75;4960095;28;47157;-75
2021/08/10 04:53:41;;;;;;;;;8.50;7.00;;;;;19.26;72.54;101604.25;4964992;28;45402;-75
2021/08/10 04:56:06;;;;;;;;;10.75;8.25;;;;;19.27;72.20;101605.94;4961979;28;45303;-79
2021/08/10 04:58:32;;;;;;;;;8.00;6.25;;;;;19.29;72.31;101601.38;4971451;28;45626;-76
2021/08/10 05:00:58;;;;;;;;;6.75;6.75;;;;;19.30;72.34;101603.13;4977672;28;45365;-77
2021/08/10 05:03:23;;;;;;;;;7.00;7.00;;;;;19.31;72.40;101603.00;4970125;28;45852;-78
2021/08/10 05:05:48;;;;;;;;;7.50;7.50;;;;;19.30;72.46;101606.66;4980239;28;45409;-77
2021/08/10 05:08:15;;;;;;;;;5.25;5.25;;;;;19.33;71.99;101609.09;4973755;28;45314;-76
2021/08/10 05:10:42;;;;;;;;;7.75;7.75;;;;;19.36;71.86;101607.25;4961960;28;46793;-75
2021/08/10 05:13:07;;;;;;;;;12.25;9.75;;;;;19.37;72.41;101609.81;4972658;28;45417;-76
2021/08/10 05:15:32;;;;;;;;;6.00;5.25;;;;;19.38;72.41;101608.88;4952174;28;46258;-76
2021/08/10 05:17:58;;;;;;;;;9.00;7.75;;;;;19.38;72.36;101600.88;4971093;28;45591;-76
2021/08/10 05:20:23;;;;;;;;;8.50;8.50;;;;;19.39;72.72;101605.25;4971710;28;46070;-76
2021/08/10 05:22:48;;;;;;;;;10.75;8.25;;;;;19.37;72.72;101599.16;4964133;28;45453;-76
2021/08/10 05:25:14;;;;;;;;;11.75;8.00;;;;;19.33;72.92;101606.44;4970266;28;45466;-75
2021/08/10 05:27:39;;;;;;;;;7.00;7.00;;;;;19.30;72.68;101608.44;4962724;28;45456;-76
2021/08/10 05:30:05;;;;;;;;;7.50;6.50;;;;;19.25;73.12;101613.16;4960746;28;45331;-76
2021/08/10 05:32:30;;;;;;;;;10.75;7.50;;;;;19.23;72.94;101619.47;4960823;28;45872;-76
2021/08/10 05:34:56;;;;;;;;;11.00;9.75;;;;;19.19;72.97;101612.56;4971978;28;45602;-76
2021/08/10 05:37:21;;;;;;;;;10.00;8.25;;;;;19.19;73.42;101617.88;4960530;28;45400;-76
2021/08/10 05:39:46;;;;;;;;;7.00;7.00;;;;;19.18;73.47;101613.53;4944314;28;47191;-76
2021/08/10 05:42:12;;;;;;;;;8.25;7.75;;;;;19.16;73.16;101612.69;4964493;28;45365;-75
2021/08/10 05:44:37;;;;;;;;;13.00;9.00;;;;;19.14;73.46;101616.41;4978989;28;45320;-72
2021/08/10 05:47:03;;;;;;;;;7.50;7.25;;;;;19.11;73.43;101610.28;4967601;28;45361;-76
2021/08/10 05:49:28;;;;;;;;;10.75;9.00;;;;;19.12;73.84;101616.47;4960240;28;47618;-76
2021/08/10 05:51:53;;;;;;;;;9.00;8.50;;;;;19.11;73.88;101612.94;4979447;28;45754;-76
2021/08/10 05:54:19;;;;;;;;;7.50;7.00;;;;;19.14;73.88;101613.75;4967092;28;45383;-77
2021/08/10 05:56:44;;;;;;;;;10.00;9.00;;;;;19.12;73.81;101601.38;4971155;28;45259;-77
2021/08/10 05:59:09;;;;;;;;;13.25;10.50;;;;;19.15;73.82;101604.78;4972269;28;46052;-77
2021/08/10 06:01:36;;;;;;;;;10.00;7.75;;;;;19.16;73.86;101614.53;4971837;28;45327;-77
2021/08/10 06:04:02;;;;;;;;;7.50;7.50;;;;;19.16;73.60;101611.84;4972356;28;45381;-77
2021/08/10 06:06:28;;;;;;;;;11.50;11.50;;;;;19.19;73.38;101617.88;4960346;28;45858;-77
2021/08/10 06:08:53;;;;;;;;;8.00;6.75;;;;;19.20;73.67;101602.78;4966741;28;45679;-77
2021/08/10 06:11:19;;;;;;;;;11.75;11.75;;;;;19.25;73.52;101616.69;4969906;28;45387;-76
2021/08/10 06:13:44;;;;;;;;;11.25;9.25;;;;;19.28;73.66;101618.34;4969782;28;45556;-77
2021/08/10 06:16:10;;;;;;;;;9.75;9.00;;;;;19.30;74.06;101611.97;4971876;28;45432;-76
2021/08/10 06:18:35;;;;;;;;;9.50;8.50;;;;;19.32;73.82;101619.88;4963859;28;45461;-76
2021/08/10 06:21:00;;;;;;;;;12.00;11.00;;;;;19.31;73.93;101615.50;4970189;28;45359;-76
2021/08/10 06:23:26;;;;;;;;;8.75;7.75;;;;;19.36;74.13;101623.25;4974370;28;45328;-76
2021/08/10 06:25:51;;;;;;;;;13.00;12.25;;;;;19.37;74.33;101616.94;4978206;28;45298;-76
2021/08/10 06:28:16;;;;;;;;;11.00;9.25;;;;;19.38;73.95;101624.00;4962528;28;47298;-76
2021/08/10 06:30:42;;;;;;;;;16.00;13.00;;;;;19.39;74.20;101615.91;4979528;28;45305;-77
2021/08/10 06:33:07;;;;;;;;;9.50;9.25;;;;;19.42;74.13;101626.41;4979150;28;45441;-76
2021/08/10 06:35:32;;;;;;;;;9.00;9.00;;;;;19.43;73.93;101616.59;4980295;28;45364;-76
2021/08/10 06:37:58;;;;;;;;;12.00;9.25;;;;;19.40;74.05;101608.78;4979592;28;46351;-76
2021/08/10 06:40:23;;;;;;;;;12.00;12.00;;;;;19.43;74.45;101608.63;4979824;28;45228;-76
2021/08/10 06:42:48;;;;;;;;;6.00;6.00;;;;;19.44;74.24;101624.50;4962465;28;45352;-76
2021/08/10 06:45:14;;;;;;;;;12.25;9.00;;;;;19.45;74.08;101623.56;4965998;28;45693;-76
2021/08/10 06:47:39;;;;;;;;;11.75;10.25;;;;;19.51;74.13;101622.34;4979733;28;45274;-76
2021/08/10 06:50:05;;;;;;;;;11.25;10.50;;;;;19.55;74.31;101623.91;4952545;28;45283;-76
2021/08/10 06:52:30;;;;;;;;;8.00;7.00;;;;;19.56;73.30;101628.28;4977452;28;45175;-76
2021/08/10 06:54:56;;;;;;;;;7.25;6.75;;;;;19.63;72.88;101622.59;4978218;28;45182;-76
2021/08/10 06:57:21;;;;;;;;;8.25;8.25;;;;;19.67;72.65;101622.34;4962036;28;46975;-76
2021/08/10 06:59:46;;;;;;;;;8.00;6.75;;;;;19.76;72.40;101615.59;4962229;28;45265;-76
2021/08/10 07:02:12;;;;;;;;;9.75;9.75;;;;;19.81;72.55;101618.00;4979577;28;45779;-76
2021/08/10 07:04:37;;;;;;;;;9.25;8.00;;;;;19.89;73.07;101621.09;4968512;28;45257;-76
2021/08/10 07:07:03;;;;;;;;;10.50;8.00;;;;;19.94;72.77;101627.94;4972733;28;45455;-77
2021/08/10 07:09:29;;;;;;;;;9.50;7.00;;;;;19.99;72.81;101623.19;4971828;28;45303;-76
2021/08/10 07:11:54;;;;;;;;;7.50;7.50;;;;;20.06;71.74;101624.53;4979761;28;45411;-76
2021/08/10 07:14:20;;;;;;;;;11.75;11.75;;;;;20.12;71.83;101626.88;4978887;28;45377;-76
2021/08/10 07:16:46;;;;;;;;;9.25;6.25;;;;;20.20;71.55;101622.91;4972745;28;46070;-76
2021/08/10 07:19:15;;;;;;;;;9.00;7.00;;;;;20.27;71.19;101623.38;4961016;28;45579;-76
2021/08/10 07:21:43;;;;;;;;;10.50;8.75;;;;;20.31;71.36;101625.78;4962409;28;45287;-76
2021/08/10 07:24:08;;;;;;;;;11.00;8.50;;;;;20.38;71.06;101633.41;4967276;28;45688;-76
2021/08/10 07:26:34;;;;;;;;;7.00;6.50;;;;;20.42;70.67;101629.63;4978964;28;45458;-76
2021/08/10 07:29:00;;;;;;;;;11.25;10.00;;;;;20.46;70.63;101628.47;4979153;28;45291;-76
2021/08/10 07:31:25;;;;;;;;;10.00;8.00;;;;;20.52;70.56;101635.25;4962130;28;45386;-76
2021/08/10 07:33:51;;;;;;;;;9.00;8.25;;;;;20.55;70.81;101638.56;4974382;28;46830;-76
2021/08/10 07:36:17;;;;;;;;;9.00;7.75;;;;;20.61;70.21;101633.81;4961228;28;47387;-76
2021/08/10 07:38:43;;;;;;;;;8.75;7.50;;;;;20.64;70.64;101641.63;4978143;28;45765;-76
2021/08/10 07:41:08;;;;;;;;;10.25;10.25;;;;;20.68;71.20;101644.03;4977229;28;45246;-76
2021/08/10 07:43:34;;;;;;;;;12.50;9.25;;;;;20.72;70.62;101641.16;4943833;28;45930;-76
2021/08/10 07:45:59;;;;;;;;;6.00;6.00;;;;;20.72;71.15;101643.84;4965332;28;46774;-76
2021/08/10 07:48:24;;;;;;;;;7.25;6.25;;;;;20.73;71.06;101640.19;4963084;28;45182;-76
2021/08/10 07:50:50;;;;;;;;;13.25;7.50;;;;;20.72;70.78;101643.84;4973355;28;45235;-76
2021/08/10 07:53:19;;;;;;;;;7.25;7.25;;;;;20.66;71.20;101639.72;4970616;28;45425;-77
2021/08/10 07:55:45;;;;;;;;;16.00;8.75;;;;;20.66;71.14;101645.06;4979910;28;47727;-77
2021/08/10 07:58:11;;;;;;;;;6.75;5.25;;;;;20.67;71.05;101646.78;4970523;28;45442;-77
2021/08/10 08:00:36;;;;;;;;;7.00;7.00;;;;;20.70;70.05;101651.94;4962740;28;45385;-77
2021/08/10 08:03:01;;;;;;;;;7.25;6.25;;;;;20.71;70.67;101642.97;4972831;28;45521;-77
2021/08/10 08:05:27;;;;;;;;;7.00;7.00;;;;;20.67;69.00;101636.94;4965733;28;45454;-76
2021/08/10 08:07:52;;;;;;;;;5.75;5.75;;;;;20.62;69.65;101639.03;4975430;28;45356;-77
2021/08/10 08:10:17;;;;;;;;;7.25;6.00;;;;;20.57;69.62;101642.00;4980750;28;45341;-77
2021/08/10 08:12:43;;;;;;;;;6.00;5.75;;;;;20.61;69.78;101641.81;4964949;28;45247;-76
2021/08/10 08:15:09;;;;;;;;;8.75;7.00;;;;;20.62;69.35;101651.56;4958873;28;46219;-76
2021/08/10 08:17:34;;;;;;;;;8.50;6.25;;;;;20.64;69.28;101645.16;4965489;28;45272;-76
2021/08/10 08:20:00;;;;;;;;;4.50;4.50;;;;;20.68;69.33;101641.34;4982384;28;45274;-76
2021/08/10 08:22:25;;;;;;;;;7.75;6.00;;;;;20.75;68.80;101643.63;4982001;28;45403;-76
2021/08/10 08:24:50;;;;;;;;;6.00;6.00;;;;;20.77;68.43;101639.03;4982252;28;46732;-76
2021/08/10 08:27:15;;;;;;;;;6.00;6.00;;;;;20.82;68.69;101644.13;4974393;28;45581;-76
2021/08/10 08:29:41;;;;;;;;;5.25;5.25;;;;;20.86;68.17;101643.84;4964073;28;45267;-76
2021/08/10 08:32:07;;;;;;;;;6.25;5.00;;;;;20.86;67.91;101643.84;4966648;28;45452;-76
2021/08/10 08:34:33;;;;;;;;;5.75;4.50;;;;;20.90;68.43;101648.03;4981838;28;46096;-76
2021/08/10 08:36:58;;;;;;;;;8.00;5.75;;;;;20.92;68.29;101645.25;4982247;28;45767;-76
2021/08/10 08:39:24;;;;;;;;;4.25;4.25;;;;;20.92;68.24;101640.75;4980528;28;45294;-76
2021/08/10 08:41:50;;;;;;;;;8.75;7.25;;;;;20.95;67.66;101637.03;4980594;28;45890;-76
2021/08/10 08:44:20;;;;;;;;;6.50;5.25;;;;;20.94;67.37;101642.50;4967992;28;45714;-76
2021/08/10 08:46:47;;;;;;;;;5.00;5.00;;;;;20.94;67.56;101642.50;4975537;28;46312;-76
2021/08/10 08:49:20;;;;;;;;;5.00;4.50;;;;;20.96;67.75;101648.59;4970804;28;45282;-77
2021/08/10 08:51:48;;;;;;;;;6.50;5.25;;;;;20.99;67.47;101637.72;4981553;28;45370;-76
2021/08/10 08:54:13;;;;;;;;;7.25;5.75;;;;;21.06;68.13;101635.53;4969677;28;45452;-76
2021/08/10 08:56:39;;;;;;;;;8.25;6.00;;;;;21.12;67.17;101630.66;4974708;28;45321;-76
2021/08/10 08:59:05;;;;;;;;;6.75;4.00;;;;;21.15;67.73;101640.28;4979476;28;45836;-76
2021/08/10 09:01:30;;;;;;;;;6.50;5.00;;;;;21.19;66.93;101630.25;4977824;28;45814;-76
2021/08/10 09:03:56;;;;;;;;;6.25;6.25;;;;;21.21;66.71;101631.88;4966143;28;45440;-76
2021/08/10 09:06:22;;;;;;;;;9.75;7.25;;;;;21.20;66.81;101637.31;4944643;28;45252;-76
2021/08/10 09:08:52;;;;;;;;;6.25;6.25;;;;;21.16;66.83;101627.78;4966206;28;45287;-76
2021/08/10 09:11:21;;;;;;;;;8.00;6.00;;;;;21.13;66.67;101629.72;4967148;28;45175;-76
2021/08/10 09:13:59;;;;;;;;;6.50;5.00;;;;;21.11;66.39;101631.59;4964554;28;45433;-76
2021/08/10 09:16:25;;;;;;;;;6.75;6.25;;;;;21.08;66.04;101630.94;4972919;28;45259;-76
2021/08/10 09:18:51;;;;;;;;;5.00;5.00;;;;;21.05;65.99;101632.00;4962175;28;45259;-76
2021/08/10 09:21:19;;;;;;;;;2.00;2.00;;;;;21.00;66.28;101628.72;4944304;28;46105;-75
2021/08/10 09:23:48;;;;;;;;;6.25;5.50;;;;;21.01;66.57;101635.84;4944092;28;47890;-76
2021/08/10 09:26:30;;;;;;;;;6.75;6.75;;;;;21.01;66.39;101638.50;4959561;28;45705;-76
2021/08/10 09:28:58;;;;;;;;;7.00;4.25;;;;;21.01;65.76;101631.31;4971300;28;45365;-76
2021/08/10 09:31:41;;;;;;;;;8.25;8.00;;;;;21.02;66.41;101635.72;4962829;28;45481;-76
2021/08/10 09:34:19;;;;;;;;;7.50;5.25;;;;;21.05;66.30;101632.00;4973140;28;46277;-76
2021/08/10 09:36:45;;;;;;;;;6.75;6.75;;;;;21.06;66.52;101624.84;4981272;28;45462;-76
2021/08/10 09:39:10;;;;;;;;;7.00;5.50;;;;;21.07;65.99;101621.19;4976716;28;45175;-76
2021/08/10 09:41:36;;;;;;;;;8.00;5.00;;;;;21.07;65.63;101624.75;4961437;28;45485;-76
2021/08/10 09:44:14;;;;;;;;;5.25;5.00;;;;;21.04;65.74;101622.25;4971957;28;45459;-76
2021/08/10 09:46:50;;;;;;;;;7.00;5.75;;;;;21.04;66.09;101624.09;4978990;28;45274;-76
2021/08/10 09:49:18;;;;;;;;;6.50;5.25;;;;;21.02;65.95;101624.16;4980029;28;45444;-75
2021/08/10 09:51:49;;;;;;;;;7.50;5.25;;;;;21.00;66.28;101620.72;4977321;28;45388;-76
2021/08/10 09:54:16;;;;;;;;;7.00;7.00;;;;;21.00;66.20;101616.25;4968286;28;46110;-76
2021/08/10 09:57:06;;;;;;;;;6.50;3.75;;;;;21.02;66.38;101613.47;4961051;28;45247;-76
2021/08/10 09:59:43;;;;;;;;;7.00;6.00;;;;;21.00;66.12;101616.25;4961467;28;45226;-75
2021/08/10 10:02:36;;;;;;;;;3.75;3.75;;;;;20.99;65.81;101608.31;4970488;28;46172;-75
2021/08/10 10:05:01;;;;;;;;;5.00;4.75;;;;;21.01;65.74;101619.81;4963321;28;45181;-76
2021/08/10 10:07:27;;;;;;;;;5.50;5.50;;;;;21.06;65.70;101623.03;4943302;28;45361;-76
2021/08/10 10:09:53;;;;;;;;;4.25;4.25;;;;;21.12;65.00;101622.63;4960377;28;45231;-76
2021/08/10 10:12:20;;;;;;;;;6.25;6.00;;;;;21.17;64.84;101622.34;4960811;28;45342;-75
2021/08/10 10:14:47;;;;;;;;;4.25;4.25;;;;;21.21;64.55;101628.34;4963749;28;46222;-76
2021/08/10 10:17:13;;;;;;;;;5.25;4.00;;;;;21.23;64.50;101624.63;4970887;28;45490;-75
2021/08/10 10:19:41;;;;;;;;;4.75;3.50;;;;;21.24;63.89;101625.47;4961023;28;45391;-75
2021/08/10 10:22:17;;;;;;;;;5.00;5.00;;;;;21.25;63.50;101624.53;4960761;28;45426;-76
2021/08/10 10:25:09;;;;;;;;;6.25;4.50;;;;;21.31;63.63;101632.13;4947481;28;48187;-76
2021/08/10 10:27:36;;;;;;;;;7.00;4.00;;;;;21.37;63.58;101625.53;4965948;28;45694;-76
2021/08/10 10:30:03;;;;;;;;;3.75;3.75;;;;;21.45;63.18;101617.88;4967684;28;45461;-75
2021/08/10 10:32:28;;;;;;;;;2.00;2.00;;;;;21.53;63.47;101628.03;4979615;28;46511;-75
2021/08/10 10:34:53;;;;;;;;;3.75;3.75;;;;;21.63;63.31;101616.75;4979752;28;45393;-75
2021/08/10 10:37:24;;;;;;;;;4.00;3.00;;;;;21.71;61.39;101614.41;4978383;28;45405;-76
2021/08/10 10:39:58;;;;;;;;;6.50;5.75;;;;;21.78;61.55;101613.03;4958922;28;45421;-76
2021/08/10 10:42:24;;;;;;;;;3.25;3.00;;;;;21.85;62.46;101609.97;4953088;28;47117;-76
2021/08/10 10:44:51;;;;;;;;;4.25;3.00;;;;;21.89;62.53;101606.13;4976591;28;45255;-75
2021/08/10 10:47:23;;;;;;;;;5.50;4.75;;;;;21.92;62.42;101611.28;4973351;28;45230;-75
2021/08/10 10:50:13;;;;;;;;;5.00;3.75;;;;;21.86;62.10;101606.31;4960714;28;45457;-75
2021/08/10 10:52:39;;;;;;;;;4.75;3.75;;;;;21.82;62.25;101600.31;4965731;28;45367;-76
2021/08/10 10:55:05;;;;;;;;;5.00;4.00;;;;;21.82;62.15;101603.00;4978571;28;46738;-75
2021/08/10 11:00:11;;;;;;;;;3.00;3.00;;;;;21.91;61.04;101596.19;4975857;28;45455;-76
2021/08/10 11:02:38;;;;;;;;;7.00;5.00;;;;;21.97;61.81;101592.25;4964149;28;45330;-76
2021/08/10 11:05:12;;;;;;;;;4.00;4.00;;;;;22.01;61.57;101596.41;4960090;28;45500;-76
2021/08/10 11:07:47;;;;;;;;;6.00;5.50;;;;;22.00;61.17;101598.22;4966078;28;45228;-77
2021/08/10 11:10:25;;;;;;;;;4.50;4.50;;;;;22.08;60.96;101595.03;4960594;28;45318;-77
2021/08/10 11:12:50;;;;;;;;;5.50;5.50;;;;;22.17;61.26;101598.91;4960151;28;45446;-76
2021/08/10 11:15:43;;;;;;;;;4.00;4.00;;;;;22.21;60.66;101591.50;4961440;28;45261;-76
2021/08/10 11:18:08;;;;;;;;;4.75;3.75;;;;;22.29;59.38;101586.47;4974172;28;45344;-76
2021/08/10 11:20:44;;;;;;;;;6.25;5.25;;;;;22.40;60.31;101593.75;4964255;28;45289;-78
2021/08/10 11:23:19;;;;;;;;;4.25;3.00;;;;;22.45;59.58;101590.75;4980917;28;46751;-76
2021/08/10 11:25:46;;;;;;;;;3.50;3.00;;;;;22.42;60.47;101586.47;4982799;28;45511;-76
2021/08/10 11:28:25;;;;;;;;;4.00;4.00;;;;;22.40;60.04;101588.38;4967885;28;45310;-76